sensor_id;sensor_type;location;lat;lon;timestamp;temperature;humidity
50606;DHT22;36557;53.572;10.170;2022-08-01T00:00:06;18.70;99.90
50606;DHT22;36557;53.572;10.170;2022-08-01T00:02:32;18.70;99.90
50606;DHT22;36557;53.572;10.170;2022-08-01T00:04:58;18.70;99.90
50606;DHT22;36557;53.572;10.170;2022-08-01T00:07:25;18.70;99.90
50606;DHT22;36557;53.572;10.170;2022-08-01T00:09:51;18.60;99.90
50606;DHT22;36557;53.572;10.170;2022-08-01T00:12:17;18.70;99.90
50606;DHT22;36557;53.572;10.170;2022-08-01T00:14:43;18.60;99.90
50606;DHT22;36557;53.572;10.170;2022-08-01T00:17:08;18.70;99.90
50606;DHT22;36557;53.572;10.170;2022-08-01T00:19:34;18.60;99.90
50606;DHT22;36557;53.572;10.170;2022-08-01T00:22:00;18.50;99.90
50606;DHT22;36557;53.572;10.170;2022-08-01T00:24:26;18.60;99.90
50606;DHT22;36557;53.572;10.170;2022-08-01T00:26:52;18.50;99.90
50606;DHT22;36557;53.572;10.170;2022-08-01T00:29:17;18.50;99.90
50606;DHT22;36557;53.572;10.170;2022-08-01T00:31:43;18.50;99.90
50606;DHT22;36557;53.572;10.170;2022-08-01T00:34:09;18.50;99.90
50606;DHT22;36557;53.572;10.170;2022-08-01T00:36:35;18.50;99.90
50606;DHT22;36557;53.572;10.170;2022-08-01T00:39:00;18.50;99.90
50606;DHT22;36557;53.572;10.170;2022-08-01T00:41:26;18.50;99.90
50606;DHT22;36557;53.572;10.170;2022-08-01T00:43:52;18.50;99.90
50606;DHT22;36557;53.572;10.170;2022-08-01T00:46:17;18.50;99.90
50606;DHT22;36557;53.572;10.170;2022-08-01T00:48:43;18.50;99.90
50606;DHT22;36557;53.572;10.170;2022-08-01T00:51:10;18.50;99.90
50606;DHT22;36557;53.572;10.170;2022-08-01T00:53:36;18.50;99.90
50606;DHT22;36557;53.572;10.170;2022-08-01T00:56:02;18.50;99.90
50606;DHT22;36557;53.572;10.170;2022-08-01T00:58:28;18.40;99.90
50606;DHT22;36557;53.572;10.170;2022-08-01T01:00:56;18.50;99.90
50606;DHT22;36557;53.572;10.170;2022-08-01T01:03:23;18.50;99.90
50606;DHT22;36557;53.572;10.170;2022-08-01T01:08:32;18.50;99.90
50606;DHT22;36557;53.572;10.170;2022-08-01T01:11:20;18.50;99.90
50606;DHT22;36557;53.572;10.170;2022-08-01T01:13:54;18.40;99.90
50606;DHT22;36557;53.572;10.170;2022-08-01T01:16:22;18.50;99.90
50606;DHT22;36557;53.572;10.170;2022-08-01T01:18:54;18.50;99.90
50606;DHT22;36557;53.572;10.170;2022-08-01T01:31:33;18.30;99.90
50606;DHT22;36557;53.572;10.170;2022-08-01T01:34:01;18.30;99.90
50606;DHT22;36557;53.572;10.170;2022-08-01T01:36:28;18.30;99.90
50606;DHT22;36557;53.572;10.170;2022-08-01T01:38:56;18.30;99.90
50606;DHT22;36557;53.572;10.170;2022-08-01T01:41:22;18.30;99.90
50606;DHT22;36557;53.572;10.170;2022-08-01T01:43:49;18.30;99.90
50606;DHT22;36557;53.572;10.170;2022-08-01T01:46:19;18.20;99.90
50606;DHT22;36557;53.572;10.170;2022-08-01T01:48:48;18.20;99.90
50606;DHT22;36557;53.572;10.170;2022-08-01T01:51:15;18.30;99.90
50606;DHT22;36557;53.572;10.170;2022-08-01T01:53:42;18.20;99.90
50606;DHT22;36557;53.572;10.170;2022-08-01T01:56:10;18.10;99.90
50606;DHT22;36557;53.572;10.170;2022-08-01T01:58:38;18.20;99.90
50606;DHT22;36557;53.572;10.170;2022-08-01T02:01:05;18.10;99.90
50606;DHT22;36557;53.572;10.170;2022-08-01T02:03:34;18.10;99.90
50606;DHT22;36557;53.572;10.170;2022-08-01T02:06:02;18.10;99.90
50606;DHT22;36557;53.572;10.170;2022-08-01T02:08:29;18.10;99.90
50606;DHT22;36557;53.572;10.170;2022-08-01T02:10:57;18.20;99.90
50606;DHT22;36557;53.572;10.170;2022-08-01T02:14:01;18.20;99.90
50606;DHT22;36557;53.572;10.170;2022-08-01T02:16:34;18.20;99.90
50606;DHT22;36557;53.572;10.170;2022-08-01T02:19:00;18.10;99.90
50606;DHT22;36557;53.572;10.170;2022-08-01T02:21:37;18.00;99.90
50606;DHT22;36557;53.572;10.170;2022-08-01T02:24:12;18.10;99.90
50606;DHT22;36557;53.572;10.170;2022-08-01T02:26:42;18.10;99.90
50606;DHT22;36557;53.572;10.170;2022-08-01T02:29:15;18.00;99.90
50606;DHT22;36557;53.572;10.170;2022-08-01T02:31:43;18.00;99.90
50606;DHT22;36557;53.572;10.170;2022-08-01T02:34:15;18.00;99.90
50606;DHT22;36557;53.572;10.170;2022-08-01T02:36:42;18.00;99.90
50606;DHT22;36557;53.572;10.170;2022-08-01T02:39:12;18.00;99.90
50606;DHT22;36557;53.572;10.170;2022-08-01T02:41:42;18.00;99.90
50606;DHT22;36557;53.572;10.170;2022-08-01T02:44:10;17.90;99.90
50606;DHT22;36557;53.572;10.170;2022-08-01T02:46:50;17.90;99.90
50606;DHT22;36557;53.572;10.170;2022-08-01T02:49:18;17.90;99.90
50606;DHT22;36557;53.572;10.170;2022-08-01T02:51:47;17.80;99.90
50606;DHT22;36557;53.572;10.170;2022-08-01T02:54:15;17.80;99.90
50606;DHT22;36557;53.572;10.170;2022-08-01T02:56:44;17.80;99.90
50606;DHT22;36557;53.572;10.170;2022-08-01T02:59:16;17.90;99.90
50606;DHT22;36557;53.572;10.170;2022-08-01T03:01:45;17.90;99.90
50606;DHT22;36557;53.572;10.170;2022-08-01T03:04:12;17.90;99.90
50606;DHT22;36557;53.572;10.170;2022-08-01T03:06:39;17.80;99.90
50606;DHT22;36557;53.572;10.170;2022-08-01T03:09:06;17.80;99.90
50606;DHT22;36557;53.572;10.170;2022-08-01T03:11:32;17.80;99.90
50606;DHT22;36557;53.572;10.170;2022-08-01T03:14:02;17.80;99.90
50606;DHT22;36557;53.572;10.170;2022-08-01T03:16:30;17.70;99.90
50606;DHT22;36557;53.572;10.170;2022-08-01T03:18:58;17.80;99.90
50606;DHT22;36557;53.572;10.170;2022-08-01T03:21:28;17.80;99.90
50606;DHT22;36557;53.572;10.170;2022-08-01T03:23:57;17.80;99.90
50606;DHT22;36557;53.572;10.170;2022-08-01T03:26:28;17.70;99.90
50606;DHT22;36557;53.572;10.170;2022-08-01T03:29:02;17.80;99.90
50606;DHT22;36557;53.572;10.170;2022-08-01T03:31:28;17.80;99.90
50606;DHT22;36557;53.572;10.170;2022-08-01T03:33:54;17.80;99.90
50606;DHT22;36557;53.572;10.170;2022-08-01T03:36:24;17.80;99.90
50606;DHT22;36557;53.572;10.170;2022-08-01T03:38:52;17.80;99.90
50606;DHT22;36557;53.572;10.170;2022-08-01T03:41:21;17.80;99.90
50606;DHT22;36557;53.572;10.170;2022-08-01T03:43:55;17.90;99.90
50606;DHT22;36557;53.572;10.170;2022-08-01T03:46:30;17.80;99.90
50606;DHT22;36557;53.572;10.170;2022-08-01T03:49:03;17.80;99.90
50606;DHT22;36557;53.572;10.170;2022-08-01T03:51:31;17.90;99.90
50606;DHT22;36557;53.572;10.170;2022-08-01T03:54:00;17.80;99.90
50606;DHT22;36557;53.572;10.170;2022-08-01T03:56:27;17.90;99.90
50606;DHT22;36557;53.572;10.170;2022-08-01T03:58:58;17.80;99.90
50606;DHT22;36557;53.572;10.170;2022-08-01T04:01:25;17.70;99.90
50606;DHT22;36557;53.572;10.170;2022-08-01T04:03:51;17.80;99.90
50606;DHT22;36557;53.572;10.170;2022-08-01T04:06:17;17.70;99.90
50606;DHT22;36557;53.572;10.170;2022-08-01T04:08:43;17.70;99.90
50606;DHT22;36557;53.572;10.170;2022-08-01T04:11:21;17.70;99.90
50606;DHT22;36557;53.572;10.170;2022-08-01T04:13:48;17.70;99.90
50606;DHT22;36557;53.572;10.170;2022-08-01T04:16:13;17.60;99.90
50606;DHT22;36557;53.572;10.170;2022-08-01T04:18:39;17.70;99.90
50606;DHT22;36557;53.572;10.170;2022-08-01T04:21:05;17.60;99.90
50606;DHT22;36557;53.572;10.170;2022-08-01T04:23:31;17.60;99.90
50606;DHT22;36557;53.572;10.170;2022-08-01T04:25:59;17.70;99.90
50606;DHT22;36557;53.572;10.170;2022-08-01T04:28:28;17.80;99.90
50606;DHT22;36557;53.572;10.170;2022-08-01T04:30:55;17.70;99.90
50606;DHT22;36557;53.572;10.170;2022-08-01T04:33:21;17.80;99.90
50606;DHT22;36557;53.572;10.170;2022-08-01T04:35:50;17.80;99.90
50606;DHT22;36557;53.572;10.170;2022-08-01T04:38:20;17.80;99.90
50606;DHT22;36557;53.572;10.170;2022-08-01T04:40:47;17.80;99.90
50606;DHT22;36557;53.572;10.170;2022-08-01T04:43:14;17.70;99.90
50606;DHT22;36557;53.572;10.170;2022-08-01T04:45:40;17.80;99.90
50606;DHT22;36557;53.572;10.170;2022-08-01T04:48:10;17.80;99.90
50606;DHT22;36557;53.572;10.170;2022-08-01T04:50:36;17.90;99.90
50606;DHT22;36557;53.572;10.170;2022-08-01T04:53:02;17.90;99.90
50606;DHT22;36557;53.572;10.170;2022-08-01T04:55:28;17.90;99.90
50606;DHT22;36557;53.572;10.170;2022-08-01T04:57:54;18.00;99.90
50606;DHT22;36557;53.572;10.170;2022-08-01T05:00:20;17.90;99.90
50606;DHT22;36557;53.572;10.170;2022-08-01T05:02:46;17.90;99.90
50606;DHT22;36557;53.572;10.170;2022-08-01T05:05:12;17.90;99.90
50606;DHT22;36557;53.572;10.170;2022-08-01T05:07:38;17.80;99.90
50606;DHT22;36557;53.572;10.170;2022-08-01T05:10:04;18.00;99.90
50606;DHT22;36557;53.572;10.170;2022-08-01T05:12:30;18.00;99.90
50606;DHT22;36557;53.572;10.170;2022-08-01T05:14:58;18.00;99.90
50606;DHT22;36557;53.572;10.170;2022-08-01T05:17:23;17.80;99.90
50606;DHT22;36557;53.572;10.170;2022-08-01T05:19:49;17.90;99.90
50606;DHT22;36557;53.572;10.170;2022-08-01T05:22:15;18.00;99.90
50606;DHT22;36557;53.572;10.170;2022-08-01T05:24:41;17.90;99.90
50606;DHT22;36557;53.572;10.170;2022-08-01T05:27:08;17.90;99.90
50606;DHT22;36557;53.572;10.170;2022-08-01T05:29:34;17.80;99.90
50606;DHT22;36557;53.572;10.170;2022-08-01T05:32:00;17.80;99.90
50606;DHT22;36557;53.572;10.170;2022-08-01T05:34:26;17.90;99.90
50606;DHT22;36557;53.572;10.170;2022-08-01T05:36:52;17.70;99.90
50606;DHT22;36557;53.572;10.170;2022-08-01T05:39:18;17.70;99.90
50606;DHT22;36557;53.572;10.170;2022-08-01T05:41:44;17.80;99.90
50606;DHT22;36557;53.572;10.170;2022-08-01T05:44:10;17.80;99.90
50606;DHT22;36557;53.572;10.170;2022-08-01T05:46:36;17.60;99.90
50606;DHT22;36557;53.572;10.170;2022-08-01T05:49:04;17.70;99.90
50606;DHT22;36557;53.572;10.170;2022-08-01T05:51:30;17.70;99.90
50606;DHT22;36557;53.572;10.170;2022-08-01T05:53:56;17.70;99.90
50606;DHT22;36557;53.572;10.170;2022-08-01T05:56:22;17.70;99.90
50606;DHT22;36557;53.572;10.170;2022-08-01T05:58:48;17.70;99.90
50606;DHT22;36557;53.572;10.170;2022-08-01T06:01:15;17.80;99.90
50606;DHT22;36557;53.572;10.170;2022-08-01T06:03:41;17.90;99.90
50606;DHT22;36557;53.572;10.170;2022-08-01T06:06:06;18.00;99.90
50606;DHT22;36557;53.572;10.170;2022-08-01T06:08:32;17.90;99.90
50606;DHT22;36557;53.572;10.170;2022-08-01T06:10:58;18.00;99.90
50606;DHT22;36557;53.572;10.170;2022-08-01T06:13:24;18.10;99.90
50606;DHT22;36557;53.572;10.170;2022-08-01T06:15:50;17.80;99.90
50606;DHT22;36557;53.572;10.170;2022-08-01T06:18:16;17.90;99.90
50606;DHT22;36557;53.572;10.170;2022-08-01T06:20:42;17.90;99.90
50606;DHT22;36557;53.572;10.170;2022-08-01T06:23:08;17.90;99.90
50606;DHT22;36557;53.572;10.170;2022-08-01T06:25:34;17.90;99.90
50606;DHT22;36557;53.572;10.170;2022-08-01T06:28:00;18.00;99.90
50606;DHT22;36557;53.572;10.170;2022-08-01T06:30:26;17.90;99.90
50606;DHT22;36557;53.572;10.170;2022-08-01T06:32:52;17.90;99.90
50606;DHT22;36557;53.572;10.170;2022-08-01T06:35:18;17.90;99.90
50606;DHT22;36557;53.572;10.170;2022-08-01T06:37:44;17.90;99.90
50606;DHT22;36557;53.572;10.170;2022-08-01T06:40:12;18.00;99.90
50606;DHT22;36557;53.572;10.170;2022-08-01T06:42:39;18.10;99.90
50606;DHT22;36557;53.572;10.170;2022-08-01T06:45:10;18.30;99.90
50606;DHT22;36557;53.572;10.170;2022-08-01T06:47:37;18.40;99.90
50606;DHT22;36557;53.572;10.170;2022-08-01T06:50:05;18.30;99.90
50606;DHT22;36557;53.572;10.170;2022-08-01T06:52:31;18.20;99.90
50606;DHT22;36557;53.572;10.170;2022-08-01T06:54:57;18.10;99.90
50606;DHT22;36557;53.572;10.170;2022-08-01T06:57:22;18.20;99.90
50606;DHT22;36557;53.572;10.170;2022-08-01T06:59:48;18.20;99.90
50606;DHT22;36557;53.572;10.170;2022-08-01T07:02:14;18.30;99.90
50606;DHT22;36557;53.572;10.170;2022-08-01T07:04:40;18.60;99.90
50606;DHT22;36557;53.572;10.170;2022-08-01T07:07:05;18.50;99.90
50606;DHT22;36557;53.572;10.170;2022-08-01T07:09:31;18.40;99.90
50606;DHT22;36557;53.572;10.170;2022-08-01T07:11:57;18.30;99.90
50606;DHT22;36557;53.572;10.170;2022-08-01T07:14:23;18.20;99.90
50606;DHT22;36557;53.572;10.170;2022-08-01T07:16:50;18.20;99.90
50606;DHT22;36557;53.572;10.170;2022-08-01T07:19:16;18.10;99.90
50606;DHT22;36557;53.572;10.170;2022-08-01T07:21:42;18.40;99.90
50606;DHT22;36557;53.572;10.170;2022-08-01T07:24:11;18.20;99.90
50606;DHT22;36557;53.572;10.170;2022-08-01T07:26:38;18.20;99.90
50606;DHT22;36557;53.572;10.170;2022-08-01T07:29:04;18.30;99.90
50606;DHT22;36557;53.572;10.170;2022-08-01T07:31:30;18.40;99.90
50606;DHT22;36557;53.572;10.170;2022-08-01T07:33:55;18.20;99.90
50606;DHT22;36557;53.572;10.170;2022-08-01T07:36:21;18.00;99.90
50606;DHT22;36557;53.572;10.170;2022-08-01T07:38:47;17.90;99.90
50606;DHT22;36557;53.572;10.170;2022-08-01T07:41:14;17.90;99.90
50606;DHT22;36557;53.572;10.170;2022-08-01T07:43:39;17.70;99.90
50606;DHT22;36557;53.572;10.170;2022-08-01T07:46:06;17.70;99.90
50606;DHT22;36557;53.572;10.170;2022-08-01T07:48:32;17.70;99.90
50606;DHT22;36557;53.572;10.170;2022-08-01T07:50:58;17.80;99.90
50606;DHT22;36557;53.572;10.170;2022-08-01T07:53:24;17.80;99.90
50606;DHT22;36557;53.572;10.170;2022-08-01T07:55:50;17.90;99.90
50606;DHT22;36557;53.572;10.170;2022-08-01T07:58:16;17.90;99.90
50606;DHT22;36557;53.572;10.170;2022-08-01T08:00:43;17.80;99.90
50606;DHT22;36557;53.572;10.170;2022-08-01T08:03:09;17.80;99.90
50606;DHT22;36557;53.572;10.170;2022-08-01T08:05:35;17.80;99.90
50606;DHT22;36557;53.572;10.170;2022-08-01T08:08:07;18.10;99.90
50606;DHT22;36557;53.572;10.170;2022-08-01T08:10:33;18.20;99.90
50606;DHT22;36557;53.572;10.170;2022-08-01T08:13:00;18.10;99.90
50606;DHT22;36557;53.572;10.170;2022-08-01T08:15:27;18.20;99.90
50606;DHT22;36557;53.572;10.170;2022-08-01T08:17:53;18.30;99.90
50606;DHT22;36557;53.572;10.170;2022-08-01T08:20:19;18.40;99.90
50606;DHT22;36557;53.572;10.170;2022-08-01T08:22:46;18.20;99.90
50606;DHT22;36557;53.572;10.170;2022-08-01T08:25:12;18.40;99.90
50606;DHT22;36557;53.572;10.170;2022-08-01T08:27:38;18.60;99.90
50606;DHT22;36557;53.572;10.170;2022-08-01T08:30:05;18.50;99.90
50606;DHT22;36557;53.572;10.170;2022-08-01T08:32:35;18.50;99.90
50606;DHT22;36557;53.572;10.170;2022-08-01T08:35:01;18.60;99.90
50606;DHT22;36557;53.572;10.170;2022-08-01T08:37:27;19.00;99.90
50606;DHT22;36557;53.572;10.170;2022-08-01T08:39:52;18.90;99.90
50606;DHT22;36557;53.572;10.170;2022-08-01T08:42:18;18.80;99.90
50606;DHT22;36557;53.572;10.170;2022-08-01T08:44:44;18.80;99.90
50606;DHT22;36557;53.572;10.170;2022-08-01T08:47:12;19.10;99.90
50606;DHT22;36557;53.572;10.170;2022-08-01T08:49:38;19.10;99.90
50606;DHT22;36557;53.572;10.170;2022-08-01T08:52:04;19.00;99.90
50606;DHT22;36557;53.572;10.170;2022-08-01T08:54:32;18.80;99.90
50606;DHT22;36557;53.572;10.170;2022-08-01T08:57:00;18.50;99.90
50606;DHT22;36557;53.572;10.170;2022-08-01T08:59:26;18.20;99.90
50606;DHT22;36557;53.572;10.170;2022-08-01T09:01:53;18.00;99.90
50606;DHT22;36557;53.572;10.170;2022-08-01T09:04:20;18.10;99.90
50606;DHT22;36557;53.572;10.170;2022-08-01T09:06:48;18.60;99.90
50606;DHT22;36557;53.572;10.170;2022-08-01T09:09:14;18.60;99.90
50606;DHT22;36557;53.572;10.170;2022-08-01T09:11:39;18.70;99.90
50606;DHT22;36557;53.572;10.170;2022-08-01T09:14:14;18.70;99.90
50606;DHT22;36557;53.572;10.170;2022-08-01T09:19:41;18.00;99.90
50606;DHT22;36557;53.572;10.170;2022-08-01T09:22:09;18.50;99.90
50606;DHT22;36557;53.572;10.170;2022-08-01T09:24:35;18.70;99.90
50606;DHT22;36557;53.572;10.170;2022-08-01T09:27:15;18.90;99.90
50606;DHT22;36557;53.572;10.170;2022-08-01T09:29:42;19.30;99.90
50606;DHT22;36557;53.572;10.170;2022-08-01T09:32:10;19.60;99.90
50606;DHT22;36557;53.572;10.170;2022-08-01T09:34:36;19.90;99.90
50606;DHT22;36557;53.572;10.170;2022-08-01T09:37:02;19.90;99.90
50606;DHT22;36557;53.572;10.170;2022-08-01T09:39:30;19.70;99.90
50606;DHT22;36557;53.572;10.170;2022-08-01T09:41:59;20.10;99.90
50606;DHT22;36557;53.572;10.170;2022-08-01T09:44:57;20.30;99.90
50606;DHT22;36557;53.572;10.170;2022-08-01T09:47:39;20.20;99.90
50606;DHT22;36557;53.572;10.170;2022-08-01T09:50:05;20.10;99.90
50606;DHT22;36557;53.572;10.170;2022-08-01T09:52:32;19.70;99.90
50606;DHT22;36557;53.572;10.170;2022-08-01T09:57:26;20.40;99.90
50606;DHT22;36557;53.572;10.170;2022-08-01T09:59:58;20.40;99.90
50606;DHT22;36557;53.572;10.170;2022-08-01T10:02:31;20.40;99.90
50606;DHT22;36557;53.572;10.170;2022-08-01T10:04:57;20.30;99.90
50606;DHT22;36557;53.572;10.170;2022-08-01T10:07:23;20.30;99.90
50606;DHT22;36557;53.572;10.170;2022-08-01T10:09:49;20.50;99.90
50606;DHT22;36557;53.572;10.170;2022-08-01T10:12:20;20.90;99.90
50606;DHT22;36557;53.572;10.170;2022-08-01T10:14:48;21.00;99.90
50606;DHT22;36557;53.572;10.170;2022-08-01T10:17:18;20.80;99.90
50606;DHT22;36557;53.572;10.170;2022-08-01T10:19:45;20.90;99.90
50606;DHT22;36557;53.572;10.170;2022-08-01T10:22:13;22.00;99.90
50606;DHT22;36557;53.572;10.170;2022-08-01T10:24:44;22.60;99.90
50606;DHT22;36557;53.572;10.170;2022-08-01T10:27:11;21.90;99.90
50606;DHT22;36557;53.572;10.170;2022-08-01T10:29:46;22.30;99.90
50606;DHT22;36557;53.572;10.170;2022-08-01T10:32:12;23.00;99.90
50606;DHT22;36557;53.572;10.170;2022-08-01T10:34:39;23.70;99.90
50606;DHT22;36557;53.572;10.170;2022-08-01T10:37:05;22.40;99.90
50606;DHT22;36557;53.572;10.170;2022-08-01T10:39:33;22.10;99.90
50606;DHT22;36557;53.572;10.170;2022-08-01T10:42:00;21.90;99.90
50606;DHT22;36557;53.572;10.170;2022-08-01T10:44:28;22.20;99.90
50606;DHT22;36557;53.572;10.170;2022-08-01T10:47:09;22.00;99.90
50606;DHT22;36557;53.572;10.170;2022-08-01T10:49:40;22.30;99.90
50606;DHT22;36557;53.572;10.170;2022-08-01T10:52:06;23.10;99.90
50606;DHT22;36557;53.572;10.170;2022-08-01T10:54:39;22.70;99.90
50606;DHT22;36557;53.572;10.170;2022-08-01T10:57:05;22.80;99.90
50606;DHT22;36557;53.572;10.170;2022-08-01T10:59:32;22.50;99.90
50606;DHT22;36557;53.572;10.170;2022-08-01T11:02:00;21.90;99.90
50606;DHT22;36557;53.572;10.170;2022-08-01T11:07:04;23.60;99.90
50606;DHT22;36557;53.572;10.170;2022-08-01T11:09:38;24.70;99.90
50606;DHT22;36557;53.572;10.170;2022-08-01T11:12:13;25.00;99.90
50606;DHT22;36557;53.572;10.170;2022-08-01T11:20:10;23.50;98.20
50606;DHT22;36557;53.572;10.170;2022-08-01T11:25:24;23.30;99.90
50606;DHT22;36557;53.572;10.170;2022-08-01T11:30:39;24.20;99.30
50606;DHT22;36557;53.572;10.170;2022-08-01T11:33:05;24.20;95.70
50606;DHT22;36557;53.572;10.170;2022-08-01T11:35:32;24.90;98.80
50606;DHT22;36557;53.572;10.170;2022-08-01T11:38:24;24.30;97.00
50606;DHT22;36557;53.572;10.170;2022-08-01T11:41:15;24.30;99.00
50606;DHT22;36557;53.572;10.170;2022-08-01T11:43:55;24.30;99.90
50606;DHT22;36557;53.572;10.170;2022-08-01T11:49:34;24.20;98.80
50606;DHT22;36557;53.572;10.170;2022-08-01T11:54:57;24.20;96.70
50606;DHT22;36557;53.572;10.170;2022-08-01T11:57:28;24.00;98.60
50606;DHT22;36557;53.572;10.170;2022-08-01T11:59:59;22.70;98.40
50606;DHT22;36557;53.572;10.170;2022-08-01T12:02:30;23.20;98.00
50606;DHT22;36557;53.572;10.170;2022-08-01T12:05:07;24.10;99.90
50606;DHT22;36557;53.572;10.170;2022-08-01T12:07:35;23.90;96.40
50606;DHT22;36557;53.572;10.170;2022-08-01T12:10:09;23.50;96.80
50606;DHT22;36557;53.572;10.170;2022-08-01T12:12:43;23.20;97.40
50606;DHT22;36557;53.572;10.170;2022-08-01T12:15:09;22.50;96.50
50606;DHT22;36557;53.572;10.170;2022-08-01T12:17:44;22.80;96.80
50606;DHT22;36557;53.572;10.170;2022-08-01T12:20:15;23.30;98.10
50606;DHT22;36557;53.572;10.170;2022-08-01T12:22:41;23.20;96.10
50606;DHT22;36557;53.572;10.170;2022-08-01T12:25:11;22.90;96.80
50606;DHT22;36557;53.572;10.170;2022-08-01T12:27:39;23.30;97.40
50606;DHT22;36557;53.572;10.170;2022-08-01T12:30:07;24.50;98.80
50606;DHT22;36557;53.572;10.170;2022-08-01T12:32:35;24.50;97.50
50606;DHT22;36557;53.572;10.170;2022-08-01T12:35:12;23.80;95.00
50606;DHT22;36557;53.572;10.170;2022-08-01T12:37:41;23.50;95.60
50606;DHT22;36557;53.572;10.170;2022-08-01T12:40:20;24.20;96.50
50606;DHT22;36557;53.572;10.170;2022-08-01T12:42:48;25.10;95.70
50606;DHT22;36557;53.572;10.170;2022-08-01T12:45:30;24.80;93.70
50606;DHT22;36557;53.572;10.170;2022-08-01T12:47:57;23.90;93.10
50606;DHT22;36557;53.572;10.170;2022-08-01T12:50:27;25.70;95.70
50606;DHT22;36557;53.572;10.170;2022-08-01T12:52:55;24.80;92.30
50606;DHT22;36557;53.572;10.170;2022-08-01T12:55:23;25.50;95.90
50606;DHT22;36557;53.572;10.170;2022-08-01T12:58:11;25.50;93.60
50606;DHT22;36557;53.572;10.170;2022-08-01T13:00:39;24.90;91.70
50606;DHT22;36557;53.572;10.170;2022-08-01T13:03:14;24.50;93.60
50606;DHT22;36557;53.572;10.170;2022-08-01T13:05:48;24.00;92.30
50606;DHT22;36557;53.572;10.170;2022-08-01T13:08:23;23.40;92.50
50606;DHT22;36557;53.572;10.170;2022-08-01T13:10:50;24.20;94.70
50606;DHT22;36557;53.572;10.170;2022-08-01T13:13:33;24.20;92.70
50606;DHT22;36557;53.572;10.170;2022-08-01T13:16:06;23.90;91.20
50606;DHT22;36557;53.572;10.170;2022-08-01T13:18:33;23.00;92.20
50606;DHT22;36557;53.572;10.170;2022-08-01T13:21:19;22.70;92.40
50606;DHT22;36557;53.572;10.170;2022-08-01T13:24:12;24.50;95.10
50606;DHT22;36557;53.572;10.170;2022-08-01T13:29:05;25.50;93.80
50606;DHT22;36557;53.572;10.170;2022-08-01T13:31:35;25.80;93.10
50606;DHT22;36557;53.572;10.170;2022-08-01T13:34:01;24.20;93.00
50606;DHT22;36557;53.572;10.170;2022-08-01T13:36:27;23.30;90.70
50606;DHT22;36557;53.572;10.170;2022-08-01T13:38:54;23.40;93.00
50606;DHT22;36557;53.572;10.170;2022-08-01T13:41:39;23.30;93.90
50606;DHT22;36557;53.572;10.170;2022-08-01T13:44:05;23.40;94.20
50606;DHT22;36557;53.572;10.170;2022-08-01T13:46:31;23.70;92.30
50606;DHT22;36557;53.572;10.170;2022-08-01T13:48:57;23.60;92.00
50606;DHT22;36557;53.572;10.170;2022-08-01T13:51:23;23.80;94.50
50606;DHT22;36557;53.572;10.170;2022-08-01T13:53:48;23.50;90.60
50606;DHT22;36557;53.572;10.170;2022-08-01T13:56:14;23.60;94.90
50606;DHT22;36557;53.572;10.170;2022-08-01T13:58:43;23.50;93.20
50606;DHT22;36557;53.572;10.170;2022-08-01T14:01:09;24.50;92.90
50606;DHT22;36557;53.572;10.170;2022-08-01T14:03:34;24.10;92.00
50606;DHT22;36557;53.572;10.170;2022-08-01T14:06:01;23.90;90.70
50606;DHT22;36557;53.572;10.170;2022-08-01T14:08:27;22.60;91.10
50606;DHT22;36557;53.572;10.170;2022-08-01T14:10:53;22.40;92.20
50606;DHT22;36557;53.572;10.170;2022-08-01T14:13:22;23.80;91.80
50606;DHT22;36557;53.572;10.170;2022-08-01T14:15:48;23.10;89.70
50606;DHT22;36557;53.572;10.170;2022-08-01T14:18:15;22.00;92.30
50606;DHT22;36557;53.572;10.170;2022-08-01T14:20:41;23.10;93.40
50606;DHT22;36557;53.572;10.170;2022-08-01T14:23:07;22.70;92.10
50606;DHT22;36557;53.572;10.170;2022-08-01T14:25:33;23.50;91.10
50606;DHT22;36557;53.572;10.170;2022-08-01T14:27:59;22.60;90.70
50606;DHT22;36557;53.572;10.170;2022-08-01T14:30:25;22.80;92.80
50606;DHT22;36557;53.572;10.170;2022-08-01T14:32:50;23.30;92.20
50606;DHT22;36557;53.572;10.170;2022-08-01T14:35:16;23.20;90.90
50606;DHT22;36557;53.572;10.170;2022-08-01T14:37:42;23.70;92.00
50606;DHT22;36557;53.572;10.170;2022-08-01T14:40:08;23.60;91.30
50606;DHT22;36557;53.572;10.170;2022-08-01T14:42:36;23.80;91.20
50606;DHT22;36557;53.572;10.170;2022-08-01T14:45:02;23.40;90.20
50606;DHT22;36557;53.572;10.170;2022-08-01T14:47:28;23.90;90.00
50606;DHT22;36557;53.572;10.170;2022-08-01T14:49:54;22.60;91.90
50606;DHT22;36557;53.572;10.170;2022-08-01T14:52:20;22.80;91.60
50606;DHT22;36557;53.572;10.170;2022-08-01T14:54:46;22.40;92.40
50606;DHT22;36557;53.572;10.170;2022-08-01T14:57:12;22.90;93.40
50606;DHT22;36557;53.572;10.170;2022-08-01T14:59:38;23.10;92.60
50606;DHT22;36557;53.572;10.170;2022-08-01T15:02:04;23.80;92.40
50606;DHT22;36557;53.572;10.170;2022-08-01T15:04:30;22.70;90.90
50606;DHT22;36557;53.572;10.170;2022-08-01T15:06:55;23.10;91.60
50606;DHT22;36557;53.572;10.170;2022-08-01T15:09:22;22.80;93.60
50606;DHT22;36557;53.572;10.170;2022-08-01T15:11:48;23.60;92.00
50606;DHT22;36557;53.572;10.170;2022-08-01T15:14:14;24.10;91.60
50606;DHT22;36557;53.572;10.170;2022-08-01T15:16:58;23.90;90.90
50606;DHT22;36557;53.572;10.170;2022-08-01T15:19:24;23.10;93.30
50606;DHT22;36557;53.572;10.170;2022-08-01T15:21:49;23.10;94.70
50606;DHT22;36557;53.572;10.170;2022-08-01T15:24:15;23.00;92.30
50606;DHT22;36557;53.572;10.170;2022-08-01T15:26:41;22.50;93.40
50606;DHT22;36557;53.572;10.170;2022-08-01T15:29:06;21.50;93.50
50606;DHT22;36557;53.572;10.170;2022-08-01T15:31:32;21.50;93.60
50606;DHT22;36557;53.572;10.170;2022-08-01T15:33:58;21.40;95.70
50606;DHT22;36557;53.572;10.170;2022-08-01T15:36:24;21.50;95.10
50606;DHT22;36557;53.572;10.170;2022-08-01T15:38:49;22.00;96.50
50606;DHT22;36557;53.572;10.170;2022-08-01T15:41:15;22.30;95.50
50606;DHT22;36557;53.572;10.170;2022-08-01T15:43:41;21.90;93.70
50606;DHT22;36557;53.572;10.170;2022-08-01T15:46:07;21.60;95.80
50606;DHT22;36557;53.572;10.170;2022-08-01T15:48:32;21.90;96.30
50606;DHT22;36557;53.572;10.170;2022-08-01T15:50:58;21.70;96.20
50606;DHT22;36557;53.572;10.170;2022-08-01T15:53:23;21.70;97.60
50606;DHT22;36557;53.572;10.170;2022-08-01T15:55:49;22.40;96.60
50606;DHT22;36557;53.572;10.170;2022-08-01T15:58:15;22.30;94.90
50606;DHT22;36557;53.572;10.170;2022-08-01T16:00:41;21.60;94.20